createdAt,value
2018-09-05T00:00:14.261Z,0
2018-09-05T00:00:40.408Z,0
2018-09-05T00:01:06.532Z,0
2018-09-05T00:01:32.665Z,0
2018-09-05T00:01:58.810Z,0
2018-09-05T00:02:24.979Z,0
2018-09-05T00:02:51.070Z,0
2018-09-05T00:03:17.197Z,0
2018-09-05T00:03:43.330Z,0
2018-09-05T00:04:09.471Z,0
2018-09-05T00:04:35.605Z,0
2018-09-05T00:05:01.744Z,0
2018-09-05T00:05:27.876Z,0
2018-09-05T00:05:54.013Z,0
2018-09-05T00:06:20.170Z,0
2018-09-05T00:06:46.317Z,0
2018-09-05T00:07:12.447Z,0
2018-09-05T00:07:38.586Z,0
2018-09-05T00:08:04.957Z,0
2018-09-05T00:08:31.172Z,0
2018-09-05T00:08:57.572Z,0
2018-09-05T00:09:23.644Z,0
2018-09-05T00:09:49.893Z,0
2018-09-05T00:10:16.029Z,0
2018-09-05T00:10:42.166Z,0
2018-09-05T00:11:08.297Z,0
2018-09-05T00:11:34.441Z,0
2018-09-05T00:12:00.573Z,0
2018-09-05T00:12:27.269Z,0
2018-09-05T00:12:53.403Z,0
2018-09-05T00:13:19.543Z,0
2018-09-05T00:13:45.677Z,0
2018-09-05T00:14:11.875Z,0
2018-09-05T00:14:38.310Z,0
2018-09-05T00:15:04.447Z,0
2018-09-05T00:15:30.585Z,0
2018-09-05T00:15:56.731Z,0
2018-09-05T00:16:22.957Z,0
2018-09-05T00:16:49.344Z,0
2018-09-05T00:17:15.476Z,0
2018-09-05T00:17:41.618Z,0
2018-09-05T00:18:07.747Z,0
2018-09-05T00:18:33.969Z,0
2018-09-05T00:19:00.238Z,0
2018-09-05T00:19:26.369Z,0
2018-09-05T00:19:52.527Z,0
2018-09-05T00:20:18.850Z,0
2018-09-05T00:20:44.980Z,0
2018-09-05T00:21:11.227Z,0
2018-09-05T00:21:37.357Z,0
2018-09-05T00:22:03.490Z,0
2018-09-05T00:22:29.625Z,0
2018-09-05T00:22:55.766Z,0
2018-09-05T00:23:22.262Z,0
2018-09-05T00:23:48.488Z,0
2018-09-05T00:24:14.627Z,0
2018-09-05T00:24:42.220Z,0
2018-09-05T00:25:08.504Z,0
2018-09-05T00:25:34.646Z,0
2018-09-05T00:26:00.772Z,0
2018-09-05T00:26:26.906Z,0
2018-09-05T00:26:53.062Z,0
2018-09-05T00:27:19.435Z,0
2018-09-05T00:27:45.627Z,0
2018-09-05T00:28:11.755Z,0
2018-09-05T00:28:37.892Z,0
2018-09-05T00:29:04.030Z,0
2018-09-05T00:29:30.303Z,0
2018-09-05T00:29:56.453Z,0
2018-09-05T00:30:22.680Z,0
2018-09-05T00:30:48.855Z,0
2018-09-05T00:31:15.003Z,0
2018-09-05T00:31:41.164Z,0
2018-09-05T00:32:07.299Z,0
2018-09-05T00:32:33.431Z,0
2018-09-05T00:32:59.698Z,0
2018-09-05T00:33:26.056Z,0
2018-09-05T00:33:52.160Z,0
2018-09-05T00:34:18.291Z,0
2018-09-05T00:34:44.453Z,0
2018-09-05T00:35:10.593Z,0
2018-09-05T00:35:37.384Z,0
2018-09-05T00:36:03.520Z,0
2018-09-05T00:36:29.674Z,0
2018-09-05T00:36:55.810Z,0
2018-09-05T00:37:21.946Z,0
2018-09-05T00:37:48.102Z,0
2018-09-05T00:38:14.353Z,0
2018-09-05T00:38:40.476Z,0
2018-09-05T00:39:06.609Z,0
2018-09-05T00:39:32.750Z,0
2018-09-05T00:39:58.882Z,0
2018-09-05T00:40:25.025Z,0
2018-09-05T00:40:51.340Z,0
2018-09-05T00:41:17.611Z,0
2018-09-05T00:41:43.743Z,0
2018-09-05T00:42:09.902Z,0
2018-09-05T00:42:36.040Z,0
2018-09-05T00:43:02.201Z,0
2018-09-05T00:43:28.595Z,0
2018-09-05T00:43:54.741Z,0
2018-09-05T00:44:20.896Z,0
2018-09-05T00:44:47.054Z,0
2018-09-05T00:45:13.192Z,0
2018-09-05T00:45:39.575Z,0
2018-09-05T00:46:06.140Z,0
2018-09-05T00:46:32.265Z,0
2018-09-05T00:46:58.401Z,0
2018-09-05T00:47:24.535Z,0
2018-09-05T00:47:50.681Z,0
2018-09-05T00:48:16.809Z,0
2018-09-05T00:48:43.490Z,0
2018-09-05T00:49:09.632Z,0
2018-09-05T00:49:35.769Z,0
2018-09-05T00:50:01.931Z,0
2018-09-05T00:50:28.090Z,0
2018-09-05T00:50:54.536Z,0
2018-09-05T00:51:20.828Z,0
2018-09-05T00:51:46.960Z,0
2018-09-05T00:52:13.103Z,0
2018-09-05T00:52:39.243Z,0
2018-09-05T00:53:05.420Z,0
2018-09-05T00:53:31.618Z,0
2018-09-05T00:53:57.781Z,0
2018-09-05T00:54:24.062Z,0
2018-09-05T00:54:50.203Z,0
2018-09-05T00:55:16.338Z,0
2018-09-05T00:55:42.470Z,0
2018-09-05T00:56:08.657Z,0
2018-09-05T00:56:34.969Z,0
2018-09-05T00:57:01.165Z,0
2018-09-05T00:57:27.298Z,0
2018-09-05T00:57:53.425Z,0
2018-09-05T00:58:19.585Z,0
2018-09-05T00:58:45.781Z,0
2018-09-05T00:59:12.097Z,0
2018-09-05T00:59:38.226Z,0
2018-09-05T01:00:04.359Z,0
2018-09-05T01:00:30.503Z,0
2018-09-05T01:00:56.633Z,0
2018-09-05T01:01:22.790Z,0
2018-09-05T01:01:49.108Z,0
2018-09-05T01:02:15.258Z,0
2018-09-05T01:02:41.409Z,0
2018-09-05T01:03:07.544Z,0
2018-09-05T01:03:33.668Z,0
2018-09-05T01:03:59.807Z,0
2018-09-05T01:04:25.969Z,0
2018-09-05T01:04:52.102Z,0
2018-09-05T01:05:18.262Z,0
2018-09-05T01:05:44.400Z,0
2018-09-05T01:06:10.557Z,0
2018-09-05T01:06:36.684Z,0
2018-09-05T01:07:02.849Z,0
2018-09-05T01:07:28.986Z,0
2018-09-05T01:07:55.120Z,0
2018-09-05T01:08:21.253Z,0
2018-09-05T01:08:47.388Z,0
2018-09-05T01:09:13.526Z,0
2018-09-05T01:09:39.661Z,0
2018-09-05T01:10:05.796Z,0
2018-09-05T01:10:31.980Z,0
2018-09-05T01:10:58.116Z,0
2018-09-05T01:11:24.269Z,0
2018-09-05T01:11:50.406Z,0
2018-09-05T01:12:16.540Z,0
2018-09-05T01:12:42.681Z,0
2018-09-05T01:13:08.813Z,0
2018-09-05T01:13:34.946Z,0
2018-09-05T01:14:01.083Z,0
2018-09-05T01:14:27.251Z,0
2018-09-05T01:14:53.385Z,0
2018-09-05T01:15:19.544Z,0
2018-09-05T01:15:45.675Z,0
2018-09-05T01:16:11.817Z,0
2018-09-05T01:16:37.948Z,0
2018-09-05T01:17:04.088Z,0
2018-09-05T01:17:30.222Z,0
2018-09-05T01:17:56.355Z,0
2018-09-05T01:18:22.485Z,0
2018-09-05T01:18:48.622Z,0
2018-09-05T01:19:14.753Z,0
2018-09-05T01:19:40.895Z,0
2018-09-05T01:20:07.039Z,0
2018-09-05T01:20:33.181Z,0
2018-09-05T01:20:59.317Z,0
2018-09-05T01:21:25.499Z,0
2018-09-05T01:21:51.658Z,0
2018-09-05T01:22:17.794Z,0
2018-09-05T01:22:43.935Z,0
2018-09-05T01:23:10.064Z,0
2018-09-05T01:23:36.202Z,0
2018-09-05T01:24:02.341Z,0
2018-09-05T01:24:28.537Z,0
2018-09-05T01:24:54.651Z,0
2018-09-05T01:25:20.814Z,0
2018-09-05T01:25:46.941Z,0
2018-09-05T01:26:13.074Z,0
2018-09-05T01:26:39.212Z,0
2018-09-05T01:27:05.372Z,0
2018-09-05T01:27:31.501Z,0
2018-09-05T01:27:57.636Z,0
2018-09-05T01:28:23.776Z,0
2018-09-05T01:28:49.921Z,0
2018-09-05T01:29:16.067Z,0
2018-09-05T01:29:42.202Z,0
2018-09-05T01:30:08.335Z,0
2018-09-05T01:30:34.492Z,0
2018-09-05T01:31:00.627Z,0
2018-09-05T01:31:26.766Z,0
2018-09-05T01:31:52.903Z,0
2018-09-05T01:32:19.033Z,0
2018-09-05T01:32:45.172Z,0
2018-09-05T01:33:11.307Z,0
2018-09-05T01:33:37.444Z,0
2018-09-05T01:34:03.575Z,0
2018-09-05T01:34:29.706Z,0
2018-09-05T01:34:55.845Z,0
2018-09-05T01:35:21.980Z,0
2018-09-05T01:35:48.115Z,0
2018-09-05T01:36:14.247Z,0
2018-09-05T01:36:40.386Z,0
2018-09-05T01:37:06.537Z,0
2018-09-05T01:37:32.673Z,0
2018-09-05T01:37:58.805Z,0
2018-09-05T01:38:24.988Z,0
2018-09-05T01:38:51.112Z,0
2018-09-05T01:39:17.254Z,0
2018-09-05T01:39:43.378Z,0
2018-09-05T01:40:09.540Z,0
2018-09-05T01:40:35.679Z,0
2018-09-05T01:41:01.837Z,0
2018-09-05T01:41:27.971Z,0
2018-09-05T01:41:54.109Z,0
2018-09-05T01:42:20.249Z,0
2018-09-05T01:42:46.381Z,0
2018-09-05T01:43:12.507Z,0
2018-09-05T01:43:38.651Z,0
2018-09-05T01:44:04.786Z,0
2018-09-05T01:44:30.923Z,0
2018-09-05T01:44:57.064Z,0
2018-09-05T01:45:23.223Z,0
2018-09-05T01:45:49.353Z,0
2018-09-05T01:46:15.538Z,0
2018-09-05T01:46:41.672Z,0
2018-09-05T01:47:07.811Z,0
2018-09-05T01:47:33.948Z,0
2018-09-05T01:48:00.084Z,0
2018-09-05T01:48:26.220Z,0
2018-09-05T01:48:52.354Z,0
2018-09-05T01:49:18.503Z,0
2018-09-05T01:49:44.640Z,0
2018-09-05T01:50:10.775Z,0
2018-09-05T01:50:36.909Z,0
2018-09-05T01:51:03.048Z,0
2018-09-05T01:51:29.180Z,0
2018-09-05T01:51:55.310Z,0
2018-09-05T01:52:21.450Z,0
2018-09-05T01:52:47.630Z,0
2018-09-05T01:53:13.769Z,0
2018-09-05T01:53:39.940Z,0
2018-09-05T01:54:06.076Z,0
2018-09-05T01:54:32.210Z,0
2018-09-05T01:54:58.348Z,0
2018-09-05T01:55:24.511Z,0
2018-09-05T01:55:50.668Z,0
2018-09-05T01:56:16.807Z,0
2018-09-05T01:56:42.941Z,0
2018-09-05T01:57:09.076Z,0
2018-09-05T01:57:35.214Z,0
2018-09-05T01:58:01.351Z,0
2018-09-05T01:58:27.489Z,0
2018-09-05T01:58:53.626Z,0
2018-09-05T01:59:19.761Z,0
2018-09-05T01:59:45.890Z,0
2018-09-05T02:00:12.032Z,0
2018-09-05T02:00:38.164Z,0
2018-09-05T02:01:04.309Z,0
2018-09-05T02:01:30.432Z,0
2018-09-05T02:01:56.577Z,0
2018-09-05T02:02:22.703Z,0
2018-09-05T02:02:48.838Z,0
2018-09-05T02:03:14.978Z,0
2018-09-05T02:03:41.134Z,0
2018-09-05T02:04:07.271Z,0
2018-09-05T02:04:33.432Z,0
2018-09-05T02:04:59.570Z,0
2018-09-05T02:05:25.710Z,0
2018-09-05T02:05:51.842Z,0
2018-09-05T02:06:17.983Z,0
2018-09-05T02:06:44.118Z,0
2018-09-05T02:07:10.276Z,0
2018-09-05T02:07:36.434Z,0
2018-09-05T02:08:02.574Z,0
2018-09-05T02:08:28.823Z,0
2018-09-05T02:08:54.930Z,0
2018-09-05T02:09:21.093Z,0
2018-09-05T02:09:47.247Z,0
2018-09-05T02:10:13.380Z,0
2018-09-05T02:10:39.527Z,0
2018-09-05T02:11:05.683Z,0
2018-09-05T02:11:31.819Z,0
2018-09-05T02:11:57.948Z,0
2018-09-05T02:12:24.078Z,0
2018-09-05T02:12:50.240Z,0
2018-09-05T02:13:16.368Z,0
2018-09-05T02:13:42.504Z,0
2018-09-05T02:14:08.635Z,0
2018-09-05T02:14:34.777Z,0
2018-09-05T02:15:00.909Z,0
2018-09-05T02:15:27.047Z,0
2018-09-05T02:15:53.173Z,0
2018-09-05T02:16:19.302Z,0
2018-09-05T02:16:45.440Z,0
2018-09-05T02:17:11.574Z,0
2018-09-05T02:17:37.729Z,0
2018-09-05T02:18:03.871Z,0
2018-09-05T02:18:30.055Z,0
2018-09-05T02:18:56.184Z,0
2018-09-05T02:19:22.323Z,0
2018-09-05T02:19:48.462Z,0
2018-09-05T02:20:14.598Z,0
2018-09-05T02:20:40.733Z,0
2018-09-05T02:21:06.870Z,0
2018-09-05T02:21:33.033Z,0
2018-09-05T02:21:59.163Z,0
2018-09-05T02:22:25.294Z,0
2018-09-05T02:22:51.428Z,0
2018-09-05T02:23:17.564Z,0
2018-09-05T02:23:43.700Z,0
2018-09-05T02:24:09.827Z,0
2018-09-05T02:24:35.973Z,0
2018-09-05T02:25:02.104Z,0
2018-09-05T02:25:28.265Z,0
2018-09-05T02:25:54.394Z,0
2018-09-05T02:26:20.529Z,0
2018-09-05T02:26:46.670Z,0
2018-09-05T02:27:12.831Z,0
2018-09-05T02:27:38.963Z,0
2018-09-05T02:28:05.095Z,0
2018-09-05T02:28:31.231Z,0
2018-09-05T02:28:57.372Z,0
2018-09-05T02:29:23.506Z,0
2018-09-05T02:29:49.642Z,0
2018-09-05T02:30:15.783Z,0
2018-09-05T02:30:41.914Z,0
2018-09-05T02:31:08.050Z,0
2018-09-05T02:31:34.190Z,0
2018-09-05T02:32:00.345Z,0
2018-09-05T02:32:26.501Z,0
2018-09-05T02:32:52.640Z,0
2018-09-05T02:33:18.775Z,0
2018-09-05T02:33:44.929Z,0
2018-09-05T02:34:11.079Z,0
2018-09-05T02:34:37.235Z,0
2018-09-05T02:35:03.369Z,0
2018-09-05T02:35:29.505Z,0
2018-09-05T02:35:55.632Z,0
2018-09-05T02:36:21.793Z,0
2018-09-05T02:36:47.974Z,0
2018-09-05T02:37:14.107Z,0
2018-09-05T02:37:40.254Z,0
2018-09-05T02:38:06.410Z,0
2018-09-05T02:38:32.576Z,0
2018-09-05T02:38:58.716Z,0
2018-09-05T02:39:24.872Z,0
2018-09-05T02:39:51.025Z,0
2018-09-05T02:40:17.264Z,0
2018-09-05T02:40:43.364Z,0
2018-09-05T02:41:09.512Z,0
2018-09-05T02:41:35.647Z,0
2018-09-05T02:42:01.799Z,0
2018-09-05T02:42:27.958Z,0
2018-09-05T02:42:54.118Z,0
2018-09-05T02:43:20.253Z,0
2018-09-05T02:43:46.388Z,0
2018-09-05T02:44:12.550Z,0
2018-09-05T02:44:38.697Z,0
2018-09-05T02:45:04.837Z,0
2018-09-05T02:45:30.969Z,0
2018-09-05T02:45:57.110Z,0
2018-09-05T02:46:23.242Z,0
2018-09-05T02:46:49.380Z,0
2018-09-05T02:47:15.513Z,0
2018-09-05T02:47:41.652Z,0
2018-09-05T02:48:07.782Z,0
2018-09-05T02:48:33.919Z,0
2018-09-05T02:49:00.074Z,0
2018-09-05T02:49:26.212Z,0
2018-09-05T02:49:52.364Z,0
2018-09-05T02:50:18.523Z,0
2018-09-05T02:50:44.653Z,0
2018-09-05T02:51:10.838Z,0
2018-09-05T02:51:36.976Z,0
2018-09-05T02:52:03.112Z,0
2018-09-05T02:52:29.245Z,0
2018-09-05T02:52:55.403Z,0
2018-09-05T02:53:21.557Z,0
2018-09-05T02:53:47.700Z,0
2018-09-05T02:54:13.840Z,0
2018-09-05T02:54:39.998Z,0
2018-09-05T02:55:06.154Z,0
2018-09-05T02:55:32.296Z,0
2018-09-05T02:55:58.449Z,0
2018-09-05T02:56:24.579Z,0
2018-09-05T02:56:50.713Z,0
2018-09-05T02:57:16.875Z,0
2018-09-05T02:57:43.004Z,0
2018-09-05T02:58:09.151Z,0
2018-09-05T02:58:35.294Z,0
2018-09-05T02:59:01.451Z,0
2018-09-05T02:59:27.587Z,0
2018-09-05T02:59:53.717Z,0
2018-09-05T03:00:19.854Z,0
2018-09-05T03:00:46.006Z,0
2018-09-05T03:01:12.145Z,0
2018-09-05T03:01:38.276Z,0
2018-09-05T03:02:04.410Z,0
2018-09-05T03:02:30.590Z,0
2018-09-05T03:02:56.732Z,0
2018-09-05T03:03:22.868Z,0
2018-09-05T03:03:49.000Z,0
2018-09-05T03:04:15.155Z,0
2018-09-05T03:04:41.299Z,0
2018-09-05T03:05:07.433Z,0
2018-09-05T03:05:33.568Z,0
2018-09-05T03:05:59.751Z,0
2018-09-05T03:06:25.917Z,0
2018-09-05T03:06:52.094Z,0
2018-09-05T03:07:18.232Z,0
2018-09-05T03:07:44.372Z,0
2018-09-05T03:08:10.511Z,0
2018-09-05T03:08:36.642Z,0
2018-09-05T03:09:02.791Z,0
2018-09-05T03:09:29.027Z,0
2018-09-05T03:09:55.096Z,0
2018-09-05T03:10:21.256Z,0
2018-09-05T03:10:47.418Z,0
2018-09-05T03:11:13.553Z,0
2018-09-05T03:11:39.730Z,0
2018-09-05T03:12:05.884Z,0
2018-09-05T03:12:32.026Z,0
2018-09-05T03:12:58.183Z,0
2018-09-05T03:13:24.323Z,0
2018-09-05T03:13:50.486Z,0
2018-09-05T03:14:16.643Z,0
2018-09-05T03:14:42.800Z,0
2018-09-05T03:15:08.965Z,0
2018-09-05T03:15:35.129Z,0
2018-09-05T03:16:01.281Z,0
2018-09-05T03:16:27.441Z,0
2018-09-05T03:16:53.574Z,0
2018-09-05T03:17:19.736Z,0
2018-09-05T03:17:45.872Z,0
2018-09-05T03:18:12.015Z,0
2018-09-05T03:18:38.164Z,0
2018-09-05T03:19:04.357Z,0
2018-09-05T03:19:30.443Z,0
2018-09-05T03:19:56.607Z,0
2018-09-05T03:20:22.735Z,0
2018-09-05T03:20:48.930Z,0
2018-09-05T03:21:15.091Z,0
2018-09-05T03:21:41.248Z,0
2018-09-05T03:22:07.388Z,0
2018-09-05T03:22:33.518Z,0
2018-09-05T03:22:59.653Z,0
2018-09-05T03:23:25.802Z,0
2018-09-05T03:23:51.936Z,0
2018-09-05T03:24:18.070Z,0
2018-09-05T03:24:44.200Z,0
2018-09-05T03:25:10.354Z,0
2018-09-05T03:25:36.523Z,0
2018-09-05T03:26:02.679Z,0
2018-09-05T03:26:28.809Z,0
2018-09-05T03:26:54.944Z,0
2018-09-05T03:27:21.117Z,0
2018-09-05T03:27:47.267Z,0
2018-09-05T03:28:13.447Z,0
2018-09-05T03:28:39.579Z,0
2018-09-05T03:29:05.734Z,0
2018-09-05T03:29:31.871Z,0
2018-09-05T03:29:58.030Z,0
2018-09-05T03:30:24.187Z,0
2018-09-05T03:30:50.338Z,0
2018-09-05T03:31:16.501Z,0
2018-09-05T03:31:42.652Z,0
2018-09-05T03:32:08.832Z,0
2018-09-05T03:32:35.003Z,0
2018-09-05T03:33:01.112Z,0
2018-09-05T03:33:27.240Z,0
2018-09-05T03:33:53.378Z,0
2018-09-05T03:34:19.516Z,0
2018-09-05T03:34:45.695Z,0
2018-09-05T03:35:11.849Z,0
2018-09-05T03:35:37.985Z,0
2018-09-05T03:36:04.120Z,0
2018-09-05T03:36:30.280Z,0
2018-09-05T03:36:56.416Z,0
2018-09-05T03:37:22.605Z,0
2018-09-05T03:37:48.760Z,0
2018-09-05T03:38:14.896Z,0
2018-09-05T03:38:41.051Z,0
2018-09-05T03:39:07.214Z,0
2018-09-05T03:39:33.368Z,0
2018-09-05T03:39:59.518Z,0
2018-09-05T03:40:25.704Z,0
2018-09-05T03:40:51.863Z,0
2018-09-05T03:41:17.996Z,0
2018-09-05T03:41:44.130Z,0
2018-09-05T03:42:10.272Z,0
2018-09-05T03:42:36.411Z,0
2018-09-05T03:43:02.562Z,0
2018-09-05T03:43:28.692Z,0
2018-09-05T03:43:54.831Z,0
2018-09-05T03:44:20.978Z,0
2018-09-05T03:44:47.127Z,0
2018-09-05T03:45:13.272Z,0
2018-09-05T03:45:39.412Z,0
2018-09-05T03:46:05.556Z,0
2018-09-05T03:46:31.796Z,0
2018-09-05T03:46:57.876Z,0
2018-09-05T03:47:24.016Z,0
2018-09-05T03:47:50.149Z,0
2018-09-05T03:48:16.285Z,0
2018-09-05T03:48:42.424Z,0
2018-09-05T03:49:08.580Z,0
2018-09-05T03:49:34.715Z,0
2018-09-05T03:50:00.847Z,0
2018-09-05T03:50:26.986Z,0
2018-09-05T03:50:53.138Z,0
2018-09-05T03:51:19.277Z,0
2018-09-05T03:51:45.407Z,0
2018-09-05T03:52:11.545Z,0
2018-09-05T03:52:37.678Z,0
2018-09-05T03:53:03.841Z,0
2018-09-05T03:53:29.997Z,0
2018-09-05T03:53:56.134Z,0
2018-09-05T03:54:22.295Z,0
2018-09-05T03:54:48.428Z,0
2018-09-05T03:55:14.567Z,0
2018-09-05T03:55:40.702Z,0
2018-09-05T03:56:06.839Z,0
2018-09-05T03:56:32.987Z,0
2018-09-05T03:56:59.118Z,0
2018-09-05T03:57:25.274Z,0
2018-09-05T03:57:51.400Z,0
2018-09-05T03:58:17.563Z,0
2018-09-05T03:58:43.741Z,0
2018-09-05T03:59:09.888Z,0
2018-09-05T03:59:36.018Z,0
2018-09-05T04:00:02.206Z,0
2018-09-05T04:00:28.364Z,0
2018-09-05T04:00:54.495Z,0
2018-09-05T04:01:20.632Z,0
2018-09-05T04:01:46.790Z,0
2018-09-05T04:02:12.927Z,0
2018-09-05T04:02:39.084Z,0
2018-09-05T04:03:05.236Z,0
2018-09-05T04:03:31.388Z,0
2018-09-05T04:03:57.571Z,0
2018-09-05T04:04:23.710Z,0
2018-09-05T04:04:49.868Z,0
2018-09-05T04:05:16.028Z,0
2018-09-05T04:05:42.163Z,0
2018-09-05T04:06:08.290Z,0
2018-09-05T04:06:34.428Z,0
2018-09-05T04:07:00.566Z,0
2018-09-05T04:07:26.701Z,0
2018-09-05T04:07:52.845Z,0
2018-09-05T04:08:19.013Z,0
2018-09-05T04:08:45.158Z,0
2018-09-05T04:09:11.297Z,0
2018-09-05T04:09:37.457Z,0
2018-09-05T04:10:03.607Z,0
2018-09-05T04:10:29.765Z,0
2018-09-05T04:10:55.899Z,4
2018-09-05T04:11:22.038Z,4
2018-09-05T04:11:48.190Z,4
2018-09-05T04:12:14.357Z,4
2018-09-05T04:12:40.454Z,4
2018-09-05T04:13:06.590Z,0
2018-09-05T04:13:32.727Z,0
2018-09-05T04:13:58.885Z,4
2018-09-05T04:14:25.021Z,4
2018-09-05T04:14:51.150Z,4
2018-09-05T04:15:17.289Z,4
2018-09-05T04:15:43.472Z,4
2018-09-05T04:16:09.601Z,4
2018-09-05T04:16:35.738Z,4
2018-09-05T04:17:01.875Z,4
2018-09-05T04:17:28.030Z,8
2018-09-05T04:17:54.166Z,4
2018-09-05T04:18:20.301Z,4
2018-09-05T04:18:46.442Z,8
2018-09-05T04:19:12.603Z,4
2018-09-05T04:19:38.757Z,8
2018-09-05T04:20:04.934Z,8
2018-09-05T04:20:31.074Z,8
2018-09-05T04:20:57.201Z,8
2018-09-05T04:21:23.359Z,8
2018-09-05T04:21:49.521Z,12
2018-09-05T04:22:15.683Z,8
2018-09-05T04:22:41.834Z,12
2018-09-05T04:23:07.993Z,12
2018-09-05T04:23:34.137Z,16
2018-09-05T04:24:00.317Z,16
2018-09-05T04:24:26.451Z,16
2018-09-05T04:24:52.611Z,16
2018-09-05T04:25:18.767Z,20
2018-09-05T04:25:44.927Z,20
2018-09-05T04:26:11.067Z,24
2018-09-05T04:26:37.197Z,24
2018-09-05T04:27:03.341Z,28
2018-09-05T04:27:29.472Z,32
2018-09-05T04:27:55.604Z,28
2018-09-05T04:28:21.746Z,32
2018-09-05T04:28:47.874Z,36
2018-09-05T04:29:14.016Z,36
2018-09-05T04:29:40.188Z,40
2018-09-05T04:30:06.322Z,44
2018-09-05T04:30:32.465Z,44
2018-09-05T04:30:58.676Z,52
2018-09-05T04:31:24.807Z,52
2018-09-05T04:31:50.973Z,56
2018-09-05T04:32:17.104Z,56
2018-09-05T04:32:43.239Z,64
2018-09-05T04:33:09.380Z,68
2018-09-05T04:33:35.518Z,68
2018-09-05T04:34:01.672Z,76
2018-09-05T04:34:27.814Z,80
2018-09-05T04:34:53.976Z,88
2018-09-05T04:35:20.134Z,88
2018-09-05T04:35:46.286Z,96
2018-09-05T04:36:12.427Z,104
2018-09-05T04:36:38.615Z,108
2018-09-05T04:37:04.753Z,112
2018-09-05T04:37:30.906Z,116
2018-09-05T04:37:57.040Z,128
2018-09-05T04:38:23.175Z,132
2018-09-05T04:38:49.313Z,140
2018-09-05T04:39:15.456Z,144
2018-09-05T04:39:41.600Z,152
2018-09-05T04:40:07.737Z,160
2018-09-05T04:40:33.908Z,172
2018-09-05T04:41:00.030Z,176
2018-09-05T04:41:26.188Z,188
2018-09-05T04:41:52.345Z,192
2018-09-05T04:42:18.502Z,204
2018-09-05T04:42:44.633Z,212
2018-09-05T04:43:10.806Z,220
2018-09-05T04:43:36.942Z,228
2018-09-05T04:44:03.095Z,244
2018-09-05T04:44:29.241Z,252
2018-09-05T04:44:55.376Z,264
2018-09-05T04:45:21.509Z,284
2018-09-05T04:45:47.646Z,288
2018-09-05T04:46:13.791Z,300
2018-09-05T04:46:39.915Z,312
2018-09-05T04:47:06.051Z,324
2018-09-05T04:47:32.210Z,336
2018-09-05T04:47:58.362Z,348
2018-09-05T04:48:24.492Z,364
2018-09-05T04:48:50.662Z,376
2018-09-05T04:49:16.792Z,388
2018-09-05T04:49:42.926Z,404
2018-09-05T04:50:09.092Z,420
2018-09-05T04:50:35.257Z,436
2018-09-05T04:51:01.394Z,452
2018-09-05T04:51:27.526Z,464
2018-09-05T04:51:53.712Z,484
2018-09-05T04:52:19.864Z,500
2018-09-05T04:52:46.089Z,520
2018-09-05T04:53:12.163Z,536
2018-09-05T04:53:38.321Z,552
2018-09-05T04:54:04.454Z,572
2018-09-05T04:54:30.595Z,592
2018-09-05T04:54:56.725Z,608
2018-09-05T04:55:22.884Z,632
2018-09-05T04:55:49.043Z,652
2018-09-05T04:56:15.204Z,672
2018-09-05T04:56:41.343Z,692
2018-09-05T04:57:07.511Z,712
2018-09-05T04:57:33.650Z,736
2018-09-05T04:57:59.778Z,760
2018-09-05T04:58:25.917Z,784
2018-09-05T04:58:52.043Z,808
2018-09-05T04:59:18.205Z,832
2018-09-05T04:59:44.355Z,856
2018-09-05T05:00:10.496Z,880
2018-09-05T05:00:36.624Z,904
2018-09-05T05:01:02.761Z,932
2018-09-05T05:01:28.921Z,960
2018-09-05T05:01:55.078Z,988
2018-09-05T05:02:21.212Z,1012
2018-09-05T05:02:47.342Z,1040
2018-09-05T05:03:13.488Z,1072
2018-09-05T05:03:39.618Z,1096
2018-09-05T05:04:05.772Z,1128
2018-09-05T05:04:32.011Z,1156
2018-09-05T05:04:58.043Z,1192
2018-09-05T05:05:24.214Z,1220
2018-09-05T05:05:50.472Z,1252
2018-09-05T05:06:16.550Z,1284
2018-09-05T05:06:42.685Z,1316
2018-09-05T05:07:08.843Z,1348
2018-09-05T05:07:34.977Z,1384
2018-09-05T05:08:01.135Z,1420
2018-09-05T05:08:27.265Z,1452
2018-09-05T05:08:53.395Z,1484
2018-09-05T05:09:19.605Z,1524
2018-09-05T05:09:45.738Z,1556
2018-09-05T05:10:11.895Z,1592
2018-09-05T05:10:38.028Z,1628
2018-09-05T05:11:04.184Z,1668
2018-09-05T05:11:30.345Z,1704
2018-09-05T05:11:56.522Z,1740
2018-09-05T05:12:22.671Z,1776
2018-09-05T05:12:48.809Z,1816
2018-09-05T05:13:15.035Z,1856
2018-09-05T05:13:41.122Z,1896
2018-09-05T05:14:07.254Z,1940
2018-09-05T05:14:33.393Z,1980
2018-09-05T05:14:59.526Z,2016
2018-09-05T05:15:25.660Z,2056
2018-09-05T05:15:51.816Z,2104
2018-09-05T05:16:17.950Z,2144
2018-09-05T05:16:44.107Z,2188
2018-09-05T05:17:10.252Z,2228
2018-09-05T05:17:36.415Z,2272
2018-09-05T05:18:02.575Z,2316
2018-09-05T05:18:28.754Z,2360
2018-09-05T05:18:54.921Z,2400
2018-09-05T05:19:21.051Z,2444
2018-09-05T05:19:47.188Z,2488
2018-09-05T05:20:13.366Z,2528
2018-09-05T05:20:39.500Z,2572
2018-09-05T05:21:05.638Z,2616
2018-09-05T05:21:31.794Z,2660
2018-09-05T05:21:57.980Z,2696
2018-09-05T05:22:24.134Z,2740
2018-09-05T05:22:50.302Z,2784
2018-09-05T05:23:16.451Z,2832
2018-09-05T05:23:42.717Z,2876
2018-09-05T05:24:08.767Z,2916
2018-09-05T05:24:34.901Z,2964
2018-09-05T05:25:01.064Z,3008
2018-09-05T05:25:27.191Z,3056
2018-09-05T05:25:53.330Z,3100
2018-09-05T05:26:19.474Z,3144
2018-09-05T05:26:45.625Z,3188
2018-09-05T05:27:11.768Z,3240
2018-09-05T05:27:37.921Z,3284
2018-09-05T05:28:04.050Z,3328
2018-09-05T05:28:30.215Z,3372
2018-09-05T05:28:56.387Z,3420
2018-09-05T05:29:22.483Z,3464
2018-09-05T05:29:48.635Z,3512
2018-09-05T05:30:14.774Z,3560
2018-09-05T05:30:40.936Z,3608
2018-09-05T05:31:07.067Z,3652
2018-09-05T05:31:33.205Z,3700
2018-09-05T05:31:59.361Z,3748
2018-09-05T05:32:25.575Z,3796
2018-09-05T05:32:51.704Z,3844
2018-09-05T05:33:17.773Z,3892
2018-09-05T05:33:43.902Z,3940
2018-09-05T05:34:10.062Z,3988
2018-09-05T05:34:36.220Z,4040
2018-09-05T05:35:02.385Z,4088
2018-09-05T05:35:28.545Z,4140
2018-09-05T05:35:54.685Z,4188
2018-09-05T05:36:20.813Z,4240
2018-09-05T05:36:46.957Z,4288
2018-09-05T05:37:13.115Z,4336
2018-09-05T05:37:39.241Z,4392
2018-09-05T05:38:05.398Z,4440
2018-09-05T05:38:31.564Z,4492
2018-09-05T05:38:57.744Z,4544
2018-09-05T05:39:23.879Z,4592
2018-09-05T05:39:50.016Z,4648
2018-09-05T05:40:16.265Z,4704
2018-09-05T05:40:42.354Z,4756
2018-09-05T05:41:08.485Z,4804
2018-09-05T05:41:34.656Z,4860
2018-09-05T05:42:00.809Z,4908
2018-09-05T05:42:26.946Z,4964
2018-09-05T05:42:53.109Z,5020
2018-09-05T05:43:19.241Z,5068
2018-09-05T05:43:45.365Z,5120
2018-09-05T05:44:11.499Z,5176
2018-09-05T05:44:37.639Z,5232
2018-09-05T05:45:03.774Z,5280
2018-09-05T05:45:29.921Z,5332
2018-09-05T05:45:56.042Z,5384
2018-09-05T05:46:22.174Z,5436
2018-09-05T05:46:48.453Z,5484
2018-09-05T05:47:14.491Z,5532
2018-09-05T05:47:40.630Z,5588
2018-09-05T05:48:06.766Z,5640
2018-09-05T05:48:32.901Z,5688
2018-09-05T05:48:59.039Z,5740
2018-09-05T05:49:25.173Z,5784
2018-09-05T05:49:51.330Z,5832
2018-09-05T05:50:17.469Z,5884
2018-09-05T05:50:43.600Z,5936
2018-09-05T05:51:09.737Z,5984
2018-09-05T05:51:35.872Z,6032
2018-09-05T05:52:02.005Z,6084
2018-09-05T05:52:28.138Z,6132
2018-09-05T05:52:54.272Z,6180
2018-09-05T05:53:20.424Z,6228
2018-09-05T05:53:46.558Z,6276
2018-09-05T05:54:12.693Z,6328
2018-09-05T05:54:38.824Z,6380
2018-09-05T05:55:05.006Z,6428
2018-09-05T05:55:31.096Z,6472
2018-09-05T05:55:57.225Z,6520
2018-09-05T05:56:23.364Z,6568
2018-09-05T05:56:49.500Z,6620
2018-09-05T05:57:15.659Z,6660
2018-09-05T05:57:41.787Z,6704
2018-09-05T05:58:07.928Z,6744
2018-09-05T05:58:34.060Z,6796
2018-09-05T05:59:00.194Z,6840
2018-09-05T05:59:26.328Z,6888
2018-09-05T05:59:52.464Z,6936
2018-09-05T06:00:18.599Z,6984
2018-09-05T06:00:44.779Z,7028
2018-09-05T06:01:10.971Z,7072
2018-09-05T06:01:37.061Z,7120
2018-09-05T06:02:03.251Z,7164
2018-09-05T06:02:29.389Z,7208
2018-09-05T06:02:55.519Z,7252
2018-09-05T06:03:21.656Z,7300
2018-09-05T06:03:47.817Z,7344
2018-09-05T06:04:13.943Z,7392
2018-09-05T06:04:40.076Z,7440
2018-09-05T06:05:06.238Z,7484
2018-09-05T06:05:32.399Z,7524
2018-09-05T06:05:58.552Z,7572
2018-09-05T06:06:24.703Z,7616
2018-09-05T06:06:50.826Z,7664
2018-09-05T06:07:16.969Z,7708
2018-09-05T06:07:43.124Z,7752
2018-09-05T06:08:09.275Z,7796
2018-09-05T06:08:35.433Z,7844
2018-09-05T06:09:01.577Z,7888
2018-09-05T06:09:27.711Z,7940
2018-09-05T06:09:53.890Z,7976
2018-09-05T06:10:20.024Z,8020
2018-09-05T06:10:46.157Z,8060
2018-09-05T06:11:12.336Z,8104
2018-09-05T06:11:38.483Z,8152
2018-09-05T06:12:04.667Z,8192
2018-09-05T06:12:30.827Z,8236
2018-09-05T06:12:56.985Z,8284
2018-09-05T06:13:23.109Z,8332
2018-09-05T06:13:49.246Z,8372
2018-09-05T06:14:15.390Z,8412
2018-09-05T06:14:41.518Z,8452
2018-09-05T06:15:07.702Z,8492
2018-09-05T06:15:33.858Z,8536
2018-09-05T06:15:59.979Z,8588